createdAt,value
2023-03-26T00:01:13.900Z,3.25
2023-03-26T00:03:41.062Z,3.33
2023-03-26T00:06:16.518Z,3.40
2023-03-26T00:08:45.111Z,3.28
2023-03-26T00:11:13.889Z,3.35
2023-03-26T00:13:42.235Z,3.75
2023-03-26T00:16:09.330Z,3.58
2023-03-26T00:18:35.741Z,3.55
2023-03-26T00:21:05.244Z,3.78
2023-03-26T00:23:33.914Z,3.80
2023-03-26T00:26:01.490Z,4.20
2023-03-26T00:28:29.589Z,4.45
2023-03-26T00:31:01.777Z,4.15
2023-03-26T00:33:28.661Z,4.35
2023-03-26T00:35:58.699Z,4.50
2023-03-26T00:38:26.574Z,5.20
2023-03-26T00:40:54.338Z,4.80
2023-03-26T00:43:22.555Z,4.47
2023-03-26T00:45:51.865Z,5.00
2023-03-26T00:48:18.841Z,4.88
2023-03-26T00:50:46.878Z,4.93
2023-03-26T00:53:14.845Z,4.75
2023-03-26T00:55:43.372Z,5.32
2023-03-26T00:58:12.701Z,5.40
2023-03-26T01:00:58.651Z,4.75
2023-03-26T01:03:29.302Z,5.18
2023-03-26T01:06:04.856Z,5.20
2023-03-26T01:08:38.304Z,5.35
2023-03-26T01:11:15.860Z,4.90
2023-03-26T01:13:56.005Z,5.22
2023-03-26T01:16:38.195Z,5.50
2023-03-26T01:19:33.756Z,4.60
2023-03-26T01:22:00.786Z,4.20
2023-03-26T01:24:27.302Z,3.78
2023-03-26T01:27:09.698Z,4.05
2023-03-26T01:30:06.889Z,4.00
2023-03-26T01:33:21.486Z,3.65
2023-03-26T01:36:19.643Z,3.78
2023-03-26T01:39:00.655Z,3.90
2023-03-26T01:41:33.780Z,4.25
2023-03-26T01:44:20.705Z,3.90
2023-03-26T01:46:48.419Z,4.18
2023-03-26T01:49:14.771Z,5.10
2023-03-26T01:51:42.510Z,4.95
2023-03-26T01:54:12.877Z,4.50
2023-03-26T01:57:04.283Z,4.50
2023-03-26T01:59:53.080Z,5.05
2023-03-26T02:02:42.812Z,4.78
2023-03-26T02:05:18.537Z,4.25
2023-03-26T02:07:52.029Z,5.30
2023-03-26T02:10:29.463Z,5.18
2023-03-26T02:12:57.619Z,5.57
2023-03-26T02:15:24.258Z,5.40
2023-03-26T02:17:52.232Z,5.55
2023-03-26T02:20:20.226Z,5.60
2023-03-26T02:22:47.303Z,5.13
2023-03-26T02:25:20.501Z,5.65
2023-03-26T02:27:47.575Z,5.53
2023-03-26T02:30:17.199Z,5.57
2023-03-26T02:32:46.493Z,5.30
2023-03-26T02:35:13.612Z,5.35
2023-03-26T02:37:42.130Z,5.80
2023-03-26T02:40:11.792Z,5.47
2023-03-26T02:42:39.146Z,5.57
2023-03-26T02:45:07.849Z,5.20
2023-03-26T02:47:34.746Z,4.90
2023-03-26T02:50:01.534Z,5.72
2023-03-26T02:52:27.944Z,5.43
2023-03-26T02:54:54.378Z,5.78
2023-03-26T02:57:21.216Z,6.00
2023-03-26T02:59:50.259Z,5.32
2023-03-26T03:02:18.274Z,6.10
2023-03-26T03:04:44.908Z,6.60
2023-03-26T03:07:14.350Z,6.22
2023-03-26T03:09:41.131Z,6.03
2023-03-26T03:12:07.535Z,5.70
2023-03-26T03:14:34.018Z,5.43
2023-03-26T03:17:00.530Z,5.32
2023-03-26T03:19:27.070Z,6.13
2023-03-26T03:21:53.454Z,5.20
2023-03-26T03:24:19.825Z,5.38
2023-03-26T03:26:48.019Z,4.97
2023-03-26T03:29:14.338Z,5.63
2023-03-26T03:31:41.311Z,5.88
2023-03-26T03:34:07.665Z,6.60
2023-03-26T03:36:38.203Z,5.70
2023-03-26T03:39:05.116Z,5.93
2023-03-26T03:41:31.482Z,6.75
2023-03-26T03:43:59.775Z,6.68
2023-03-26T03:46:26.217Z,5.63
2023-03-26T03:48:52.617Z,6.03
2023-03-26T03:51:21.604Z,6.55
2023-03-26T03:53:47.968Z,6.10
2023-03-26T03:56:14.749Z,6.07
2023-03-26T03:58:41.672Z,5.85
2023-03-26T04:01:08.041Z,6.80
2023-03-26T04:03:38.743Z,6.60
2023-03-26T04:06:11.011Z,6.60
2023-03-26T04:08:37.431Z,6.40
2023-03-26T04:11:04.575Z,6.13
2023-03-26T04:13:31.159Z,5.45
2023-03-26T04:15:57.888Z,6.32
2023-03-26T04:18:26.280Z,5.85
2023-03-26T04:20:54.517Z,6.20
2023-03-26T04:23:22.410Z,5.95
2023-03-26T04:25:53.755Z,5.57
2023-03-26T04:29:00.003Z,6.00
2023-03-26T04:31:31.158Z,5.85
2023-03-26T04:34:06.908Z,6.03
2023-03-26T04:36:34.278Z,5.97
2023-03-26T04:39:04.859Z,6.10
2023-03-26T04:41:32.330Z,5.97
2023-03-26T04:44:01.735Z,6.60
2023-03-26T04:46:28.127Z,6.25
2023-03-26T04:48:54.985Z,6.53
2023-03-26T04:51:27.350Z,6.32
2023-03-26T04:54:00.337Z,5.90
2023-03-26T04:56:43.126Z,6.82
2023-03-26T04:59:14.744Z,6.72
2023-03-26T05:01:41.637Z,6.85
2023-03-26T05:04:08.248Z,6.53
2023-03-26T05:06:34.791Z,6.53
2023-03-26T05:09:02.127Z,7.32
2023-03-26T05:11:28.624Z,6.80
2023-03-26T05:13:54.974Z,7.57
2023-03-26T05:16:22.464Z,7.57
2023-03-26T05:18:48.831Z,7.28
2023-03-26T05:21:15.364Z,6.93
2023-03-26T05:23:41.770Z,8.20
2023-03-26T05:26:09.898Z,7.30
2023-03-26T05:28:36.807Z,7.07
2023-03-26T05:31:03.484Z,7.28
2023-03-26T05:33:30.407Z,7.95
2023-03-26T05:36:02.339Z,7.28
2023-03-26T05:38:29.982Z,7.47
2023-03-26T05:41:01.228Z,7.43
2023-03-26T05:43:28.541Z,6.63
2023-03-26T05:45:54.943Z,8.02
2023-03-26T05:48:22.291Z,7.55
2023-03-26T05:50:50.671Z,7.82
2023-03-26T05:53:18.220Z,7.63
2023-03-26T05:55:45.935Z,7.85
2023-03-26T05:58:13.006Z,8.55
2023-03-26T06:00:39.472Z,8.88
2023-03-26T06:03:06.141Z,8.27
2023-03-26T06:05:37.301Z,7.57
2023-03-26T06:08:04.429Z,8.27
2023-03-26T06:10:31.404Z,8.32
2023-03-26T06:12:58.045Z,7.03
2023-03-26T06:15:24.456Z,7.82
2023-03-26T06:17:50.893Z,7.25
2023-03-26T06:20:17.293Z,8.80
2023-03-26T06:22:43.762Z,9.32
2023-03-26T06:25:10.111Z,8.20
2023-03-26T06:27:36.456Z,8.15
2023-03-26T06:30:03.008Z,9.52
2023-03-26T06:32:29.409Z,7.90
2023-03-26T06:34:55.975Z,8.25
2023-03-26T06:37:22.310Z,8.82
2023-03-26T06:39:48.671Z,8.10
2023-03-26T06:42:15.028Z,9.38
2023-03-26T06:44:41.436Z,9.55
2023-03-26T06:47:07.862Z,9.98
2023-03-26T06:49:34.515Z,9.63
2023-03-26T06:52:02.849Z,8.82
2023-03-26T06:54:29.399Z,9.13
2023-03-26T06:56:56.452Z,9.73
2023-03-26T06:59:22.924Z,9.98
2023-03-26T07:01:49.284Z,9.93
2023-03-26T07:04:15.843Z,9.02
2023-03-26T07:06:42.297Z,9.90
2023-03-26T07:09:08.644Z,8.75
2023-03-26T07:11:35.190Z,9.18
2023-03-26T07:14:01.529Z,10.00
2023-03-26T07:16:28.120Z,10.10
2023-03-26T07:18:55.290Z,9.55
2023-03-26T07:21:22.604Z,9.73
2023-03-26T07:23:49.344Z,10.30
2023-03-26T07:26:26.459Z,9.88
2023-03-26T07:29:04.812Z,9.32
2023-03-26T07:31:45.649Z,10.65
2023-03-26T07:34:42.822Z,10.02
2023-03-26T07:37:31.624Z,10.45
2023-03-26T07:40:10.607Z,11.15
2023-03-26T07:42:36.945Z,11.00
2023-03-26T07:45:30.312Z,10.27
2023-03-26T07:47:57.143Z,10.55
2023-03-26T07:50:24.813Z,11.30
2023-03-26T07:52:51.849Z,11.00
2023-03-26T07:55:19.509Z,11.57
2023-03-26T07:58:00.957Z,11.18
2023-03-26T08:00:35.043Z,11.90
2023-03-26T08:03:23.118Z,11.63
2023-03-26T08:06:07.708Z,13.20
2023-03-26T08:09:11.375Z,11.82
2023-03-26T08:11:53.510Z,11.15
2023-03-26T08:14:44.293Z,11.32
2023-03-26T08:17:53.269Z,11.30
2023-03-26T08:20:31.088Z,11.20
2023-03-26T08:23:09.433Z,11.60
2023-03-26T08:25:53.389Z,12.02
2023-03-26T08:28:30.466Z,10.68
2023-03-26T08:30:57.752Z,11.20
2023-03-26T08:33:27.729Z,10.85
2023-03-26T08:35:54.200Z,14.27
2023-03-26T08:38:32.895Z,12.55
2023-03-26T08:41:11.679Z,12.30
2023-03-26T08:43:50.185Z,11.52
2023-03-26T08:46:37.987Z,13.02
2023-03-26T08:49:39.876Z,11.40
2023-03-26T08:52:40.332Z,10.88
2023-03-26T08:55:36.419Z,11.02
2023-03-26T08:58:21.494Z,12.43
2023-03-26T09:01:06.746Z,13.30
2023-03-26T09:03:57.585Z,11.00
2023-03-26T09:07:01.881Z,11.05
2023-03-26T09:09:49.535Z,10.52
2023-03-26T09:12:48.018Z,10.90
2023-03-26T09:15:42.274Z,11.00
2023-03-26T09:18:29.306Z,11.82
2023-03-26T09:21:28.914Z,11.85
2023-03-26T09:24:27.667Z,11.82
2023-03-26T09:27:07.711Z,11.95
2023-03-26T09:30:01.149Z,11.93
2023-03-26T09:32:51.575Z,11.43
2023-03-26T09:35:50.560Z,12.52
2023-03-26T09:38:32.328Z,12.38
2023-03-26T09:41:07.876Z,12.55
2023-03-26T09:43:43.667Z,14.45
2023-03-26T09:46:34.334Z,11.43
2023-03-26T09:49:45.500Z,11.10
2023-03-26T09:52:40.829Z,11.43
2023-03-26T09:55:20.375Z,9.82
2023-03-26T09:58:04.694Z,10.27
2023-03-26T10:00:47.918Z,9.73
2023-03-26T10:03:14.341Z,9.82
2023-03-26T10:05:58.622Z,9.68
2023-03-26T10:08:41.832Z,10.23
2023-03-26T10:11:11.128Z,9.95
2023-03-26T10:13:56.197Z,9.68
2023-03-26T10:16:47.992Z,10.02
2023-03-26T10:19:20.561Z,9.27
2023-03-26T10:22:03.790Z,9.52
2023-03-26T10:24:48.419Z,9.48
2023-03-26T10:27:52.427Z,9.43
2023-03-26T10:30:47.139Z,8.48
2023-03-26T10:33:33.657Z,9.45
2023-03-26T10:36:01.030Z,9.40
2023-03-26T10:38:27.433Z,7.78
2023-03-26T10:41:16.807Z,8.02
2023-03-26T10:44:07.507Z,7.10
2023-03-26T10:46:50.228Z,7.18
2023-03-26T10:49:35.609Z,6.75
2023-03-26T10:52:08.060Z,7.65
2023-03-26T10:54:53.341Z,6.32
2023-03-26T10:57:41.191Z,6.82
2023-03-26T11:00:17.337Z,6.10
2023-03-26T11:02:54.257Z,6.85
2023-03-26T11:05:58.099Z,5.85
2023-03-26T11:08:51.450Z,6.10
2023-03-26T11:11:23.985Z,6.05
2023-03-26T11:14:27.963Z,5.65
2023-03-26T11:17:39.452Z,5.85
2023-03-26T11:20:30.288Z,5.57
2023-03-26T11:23:30.850Z,5.47
2023-03-26T11:26:55.884Z,5.63
2023-03-26T11:29:43.079Z,4.32
2023-03-26T11:32:15.543Z,4.97
2023-03-26T11:34:52.839Z,4.38
2023-03-26T11:37:46.308Z,4.50
2023-03-26T11:40:37.263Z,4.20
2023-03-26T11:43:07.725Z,4.10
2023-03-26T11:45:42.279Z,4.72
2023-03-26T11:48:17.182Z,4.60
2023-03-26T11:50:55.674Z,3.88
2023-03-26T11:53:27.559Z,4.10
2023-03-26T11:56:09.277Z,3.97
2023-03-26T11:58:45.628Z,3.42
2023-03-26T12:01:17.281Z,3.20
2023-03-26T12:03:55.688Z,4.03
2023-03-26T12:06:25.720Z,5.55
2023-03-26T12:08:53.653Z,4.10
2023-03-26T12:11:27.217Z,7.20
2023-03-26T12:14:00.798Z,4.53
2023-03-26T12:16:27.909Z,4.35
2023-03-26T12:19:19.390Z,4.68
2023-03-26T12:21:48.380Z,3.58
2023-03-26T12:24:29.567Z,4.03
2023-03-26T12:27:25.257Z,3.85
2023-03-26T12:29:52.719Z,4.07
2023-03-26T12:32:19.131Z,4.15
2023-03-26T12:34:45.631Z,4.22
2023-03-26T12:37:36.960Z,3.85
2023-03-26T12:40:26.380Z,4.00
2023-03-26T12:44:54.889Z,4.10
2023-03-26T12:45:44.626Z,4.03
2023-03-26T12:48:15.443Z,4.20
2023-03-26T12:50:51.016Z,4.10
2023-03-26T12:53:31.117Z,4.25
2023-03-26T12:56:01.919Z,5.70
2023-03-26T12:58:51.114Z,4.00
2023-03-26T13:01:42.073Z,4.47
2023-03-26T13:04:27.498Z,4.63
2023-03-26T13:07:23.514Z,4.13
2023-03-26T13:10:22.709Z,5.28
2023-03-26T13:13:27.832Z,5.43
2023-03-26T13:16:19.466Z,5.22
2023-03-26T13:19:15.711Z,5.10
2023-03-26T13:21:45.962Z,4.78
2023-03-26T13:24:26.515Z,5.32
2023-03-26T13:27:18.316Z,5.18
2023-03-26T13:29:56.251Z,5.50
2023-03-26T13:32:50.504Z,6.30
2023-03-26T13:35:46.825Z,5.15
2023-03-26T13:38:21.902Z,4.97
2023-03-26T13:41:30.198Z,6.27
2023-03-26T13:44:05.355Z,5.35
2023-03-26T13:46:51.868Z,6.28
2023-03-26T13:49:40.593Z,7.95
2023-03-26T13:52:22.310Z,7.38
2023-03-26T13:55:12.785Z,8.02
2023-03-26T13:57:43.490Z,7.43
2023-03-26T14:00:16.323Z,7.35
2023-03-26T14:02:47.728Z,7.53
2023-03-26T14:05:21.159Z,6.35
2023-03-26T14:07:57.230Z,5.55
2023-03-26T14:13:16.208Z,5.25
2023-03-26T14:15:55.791Z,5.72
2023-03-26T14:18:43.268Z,5.68
2023-03-26T14:21:40.739Z,5.88
2023-03-26T14:24:22.470Z,5.35
2023-03-26T14:26:56.026Z,5.38
2023-03-26T14:29:57.505Z,6.07
2023-03-26T14:32:51.276Z,6.40
2023-03-26T14:35:28.199Z,5.78
2023-03-26T14:38:00.795Z,5.18
2023-03-26T14:40:33.295Z,5.20
2023-03-26T14:43:18.187Z,4.80
2023-03-26T14:45:44.504Z,3.33
2023-03-26T14:48:16.990Z,4.57
2023-03-26T14:50:58.157Z,3.67
2023-03-26T14:53:34.522Z,3.13
2023-03-26T14:56:15.809Z,2.97
2023-03-26T14:59:01.108Z,3.20
2023-03-26T15:01:45.916Z,3.10
2023-03-26T15:04:27.297Z,3.30
2023-03-26T15:07:41.416Z,2.58
2023-03-26T15:10:35.646Z,2.45
2023-03-26T15:13:26.625Z,2.92
2023-03-26T15:16:08.310Z,2.95
2023-03-26T15:19:03.932Z,3.47
2023-03-26T15:22:07.898Z,2.83
2023-03-26T15:24:52.753Z,3.25
2023-03-26T15:27:47.356Z,2.88
2023-03-26T15:30:13.688Z,2.72
2023-03-26T15:33:22.640Z,3.28
2023-03-26T15:36:01.000Z,3.58
2023-03-26T15:38:38.454Z,2.78
2023-03-26T15:41:30.540Z,3.53
2023-03-26T15:46:38.499Z,3.33
2023-03-26T15:49:23.001Z,3.80
2023-03-26T15:52:06.286Z,3.90
2023-03-26T15:54:45.289Z,2.92
2023-03-26T15:57:47.060Z,3.35
2023-03-26T16:00:22.583Z,3.00
2023-03-26T16:03:10.666Z,3.67
2023-03-26T16:06:02.232Z,2.85
2023-03-26T16:08:40.986Z,3.30
2023-03-26T16:11:12.463Z,2.92
2023-03-26T16:13:48.872Z,2.85
2023-03-26T16:16:15.369Z,3.25
2023-03-26T16:18:48.279Z,3.20
2023-03-26T16:21:31.346Z,3.05
2023-03-26T16:24:08.406Z,3.60
2023-03-26T16:26:54.550Z,2.88
2023-03-26T16:29:27.962Z,3.25
2023-03-26T16:32:09.775Z,2.88
2023-03-26T16:34:57.283Z,2.97
2023-03-26T16:37:36.234Z,3.28
2023-03-26T16:40:22.186Z,3.17
2023-03-26T16:43:24.173Z,3.15
2023-03-26T16:45:59.721Z,3.30
2023-03-26T16:48:35.770Z,3.30
2023-03-26T16:51:05.139Z,3.17
2023-03-26T16:53:41.656Z,2.55
2023-03-26T16:56:14.100Z,4.10
2023-03-26T16:58:40.753Z,2.97
2023-03-26T17:01:17.550Z,2.83
2023-03-26T17:03:56.122Z,3.13
2023-03-26T17:06:45.652Z,2.80
2023-03-26T17:09:27.901Z,3.53
2023-03-26T17:12:14.825Z,3.15
2023-03-26T17:14:49.998Z,3.20
2023-03-26T17:17:28.566Z,3.00
2023-03-26T17:20:33.530Z,2.50
2023-03-26T17:23:11.542Z,2.80
2023-03-26T17:25:57.433Z,2.85
2023-03-26T17:28:50.600Z,2.83
2023-03-26T17:31:39.865Z,3.20
2023-03-26T17:34:33.096Z,2.47
2023-03-26T17:37:01.174Z,3.03
2023-03-26T17:39:39.861Z,2.78
2023-03-26T17:42:26.783Z,3.10
2023-03-26T17:45:17.583Z,2.58
2023-03-26T17:47:51.619Z,2.78
2023-03-26T17:50:25.321Z,2.92
2023-03-26T17:53:02.538Z,2.47
2023-03-26T17:55:39.652Z,2.45
2023-03-26T17:58:19.170Z,2.72
2023-03-26T18:00:52.172Z,2.92
2023-03-26T18:03:23.549Z,2.70
2023-03-26T18:05:58.238Z,3.08
2023-03-26T18:08:27.560Z,2.58
2023-03-26T18:11:09.326Z,2.25
2023-03-26T18:13:55.538Z,2.63
2023-03-26T18:16:28.471Z,2.95
2023-03-26T18:19:00.620Z,2.70
2023-03-26T18:21:32.769Z,2.97
2023-03-26T18:24:01.021Z,3.10
2023-03-26T18:26:38.490Z,3.03
2023-03-26T18:29:37.828Z,2.80
2023-03-26T18:32:10.068Z,3.35
2023-03-26T18:34:49.759Z,2.97
2023-03-26T18:37:23.251Z,3.35
2023-03-26T18:39:57.165Z,3.95
2023-03-26T18:42:25.554Z,3.55
2023-03-26T18:44:53.494Z,3.30
2023-03-26T18:47:28.048Z,3.20
2023-03-26T18:49:57.321Z,3.83
2023-03-26T18:52:23.820Z,3.65
2023-03-26T18:54:54.008Z,4.53
2023-03-26T18:57:23.975Z,4.03
2023-03-26T18:59:52.610Z,3.83
2023-03-26T19:02:20.430Z,3.38
2023-03-26T19:04:49.477Z,3.33
2023-03-26T19:07:24.000Z,3.25
2023-03-26T19:09:56.177Z,3.03
2023-03-26T19:12:32.822Z,3.25
2023-03-26T19:15:14.618Z,2.90
2023-03-26T19:18:14.342Z,3.13
2023-03-26T19:20:44.246Z,3.03
2023-03-26T19:23:25.661Z,2.58
2023-03-26T19:25:58.000Z,2.72
2023-03-26T19:28:31.702Z,3.83
2023-03-26T19:31:08.146Z,3.17
2023-03-26T19:33:40.436Z,3.33
2023-03-26T19:36:13.007Z,4.15
2023-03-26T19:38:48.895Z,4.32
2023-03-26T19:41:30.394Z,3.70
2023-03-26T19:44:00.726Z,2.80
2023-03-26T19:46:29.139Z,3.08
2023-03-26T19:48:57.686Z,2.70
2023-03-26T19:51:32.292Z,3.22
2023-03-26T19:54:03.001Z,2.50
2023-03-26T19:56:30.080Z,2.60
2023-03-26T19:58:57.401Z,2.10
2023-03-26T20:01:28.440Z,2.92
2023-03-26T20:03:58.826Z,2.28
2023-03-26T20:06:41.691Z,2.40
2023-03-26T20:09:10.912Z,3.15
2023-03-26T20:11:39.242Z,2.20
2023-03-26T20:14:18.239Z,2.72
2023-03-26T20:16:45.797Z,2.22
2023-03-26T20:19:14.073Z,2.58
2023-03-26T20:21:41.534Z,2.70
2023-03-26T20:24:14.676Z,2.88
2023-03-26T20:26:41.549Z,3.22
2023-03-26T20:29:07.926Z,3.15
2023-03-26T20:31:34.473Z,2.40
2023-03-26T20:34:00.889Z,2.88
2023-03-26T20:36:33.916Z,2.45
2023-03-26T20:39:06.058Z,2.60
2023-03-26T20:41:34.215Z,2.58
2023-03-26T20:44:00.972Z,3.03
2023-03-26T20:46:30.537Z,3.03
2023-03-26T20:48:58.731Z,2.35
2023-03-26T20:51:25.240Z,2.47
2023-03-26T20:53:51.888Z,2.40
2023-03-26T20:56:20.258Z,2.53
2023-03-26T20:58:54.791Z,2.90
2023-03-26T21:01:27.783Z,2.63
2023-03-26T21:03:54.455Z,2.67
2023-03-26T21:06:20.779Z,2.92
2023-03-26T21:08:47.378Z,2.25
2023-03-26T21:11:26.673Z,2.80
2023-03-26T21:14:09.254Z,3.03
2023-03-26T21:16:36.467Z,2.60
2023-03-26T21:19:03.321Z,3.10
2023-03-26T21:21:59.965Z,3.40
2023-03-26T21:27:22.234Z,2.67
2023-03-26T21:29:48.888Z,3.00
2023-03-26T21:32:15.533Z,3.10
2023-03-26T21:34:55.719Z,2.70
2023-03-26T21:37:24.825Z,2.80
2023-03-26T21:39:51.606Z,3.25
2023-03-26T21:42:18.512Z,3.47
2023-03-26T21:44:45.191Z,3.38
2023-03-26T21:47:12.060Z,3.22
2023-03-26T21:49:38.791Z,2.92
2023-03-26T21:52:05.736Z,3.20
2023-03-26T21:54:33.077Z,2.90
2023-03-26T21:57:39.162Z,2.60
2023-03-26T22:00:18.072Z,2.63
2023-03-26T22:03:00.137Z,2.50
2023-03-26T22:05:32.756Z,2.80
2023-03-26T22:08:04.427Z,3.00
2023-03-26T22:10:32.016Z,2.45
2023-03-26T22:12:58.834Z,2.50
2023-03-26T22:15:31.121Z,2.92
2023-03-26T22:18:02.526Z,3.38
2023-03-26T22:20:29.297Z,2.08
2023-03-26T22:22:55.839Z,2.38
2023-03-26T22:25:24.078Z,2.55
2023-03-26T22:27:51.476Z,2.92
2023-03-26T22:30:18.769Z,2.25
2023-03-26T22:32:45.492Z,2.75
2023-03-26T22:35:12.888Z,2.47
2023-03-26T22:37:39.869Z,2.05
2023-03-26T22:40:13.139Z,2.85
2023-03-26T22:42:40.103Z,2.50
2023-03-26T22:45:07.282Z,2.42
2023-03-26T22:47:35.455Z,2.60
2023-03-26T22:50:03.125Z,2.90
2023-03-26T22:52:30.470Z,2.75
2023-03-26T22:54:57.378Z,3.05
2023-03-26T22:57:24.415Z,3.05
2023-03-26T22:59:51.964Z,2.55
2023-03-26T23:02:18.645Z,2.80
2023-03-26T23:04:46.155Z,2.33
2023-03-26T23:07:12.514Z,2.83
2023-03-26T23:09:38.956Z,2.90
2023-03-26T23:12:05.743Z,2.50
2023-03-26T23:14:36.156Z,2.08
2023-03-26T23:17:02.575Z,1.98
2023-03-26T23:19:30.125Z,2.63
2023-03-26T23:21:57.582Z,2.05
2023-03-26T23:24:26.378Z,2.53
2023-03-26T23:26:53.140Z,1.63
2023-03-26T23:29:19.697Z,2.63
2023-03-26T23:31:46.230Z,2.13
2023-03-26T23:34:13.471Z,2.13
2023-03-26T23:36:40.811Z,2.33
2023-03-26T23:39:07.285Z,1.88
2023-03-26T23:41:34.480Z,2.20
2023-03-26T23:44:01.476Z,2.65
2023-03-26T23:46:34.809Z,2.90
2023-03-26T23:49:04.342Z,2.17
2023-03-26T23:51:31.759Z,2.55
2023-03-26T23:53:59.687Z,2.20
2023-03-26T23:56:27.568Z,2.67
2023-03-26T23:58:55.138Z,1.95
